sensor_id;sensor_type;location;lat;lon;timestamp;P1;durP1;ratioP1;P2;durP2;ratioP2
568;SDS011;269;48.884;9.192;2022-08-21T00:01:14;2.47;;;2.00;;
568;SDS011;269;48.884;9.192;2022-08-21T00:03:48;3.27;;;2.33;;
568;SDS011;269;48.884;9.192;2022-08-21T00:06:15;5.23;;;2.10;;
568;SDS011;269;48.884;9.192;2022-08-21T00:08:42;4.13;;;2.50;;
568;SDS011;269;48.884;9.192;2022-08-21T00:11:10;4.50;;;2.50;;
568;SDS011;269;48.884;9.192;2022-08-21T00:13:37;3.23;;;2.30;;
568;SDS011;269;48.884;9.192;2022-08-21T00:16:05;2.70;;;2.50;;
568;SDS011;269;48.884;9.192;2022-08-21T00:18:32;3.40;;;2.30;;
568;SDS011;269;48.884;9.192;2022-08-21T00:21:01;3.20;;;2.40;;
568;SDS011;269;48.884;9.192;2022-08-21T00:23:29;3.10;;;2.50;;
568;SDS011;269;48.884;9.192;2022-08-21T00:25:56;2.83;;;2.57;;
568;SDS011;269;48.884;9.192;2022-08-21T00:28:23;2.60;;;2.40;;
568;SDS011;269;48.884;9.192;2022-08-21T00:30:50;3.03;;;2.50;;
568;SDS011;269;48.884;9.192;2022-08-21T00:33:17;4.77;;;2.60;;
568;SDS011;269;48.884;9.192;2022-08-21T00:35:44;2.83;;;2.53;;
568;SDS011;269;48.884;9.192;2022-08-21T00:38:12;2.90;;;2.50;;
568;SDS011;269;48.884;9.192;2022-08-21T00:40:43;3.00;;;2.27;;
568;SDS011;269;48.884;9.192;2022-08-21T00:43:13;3.63;;;2.43;;
568;SDS011;269;48.884;9.192;2022-08-21T00:45:42;3.20;;;2.40;;
568;SDS011;269;48.884;9.192;2022-08-21T00:48:09;3.13;;;2.67;;
568;SDS011;269;48.884;9.192;2022-08-21T00:50:38;3.07;;;2.50;;
568;SDS011;269;48.884;9.192;2022-08-21T00:53:10;2.83;;;2.40;;
568;SDS011;269;48.884;9.192;2022-08-21T00:55:39;3.37;;;2.63;;
568;SDS011;269;48.884;9.192;2022-08-21T00:58:08;5.10;;;2.50;;
568;SDS011;269;48.884;9.192;2022-08-21T01:00:38;3.53;;;2.70;;
568;SDS011;269;48.884;9.192;2022-08-21T01:03:09;3.00;;;2.50;;
568;SDS011;269;48.884;9.192;2022-08-21T01:05:38;6.13;;;2.73;;
568;SDS011;269;48.884;9.192;2022-08-21T01:08:06;3.20;;;2.17;;
568;SDS011;269;48.884;9.192;2022-08-21T01:10:35;3.47;;;2.57;;
568;SDS011;269;48.884;9.192;2022-08-21T01:13:04;3.10;;;2.50;;
568;SDS011;269;48.884;9.192;2022-08-21T01:15:33;3.10;;;2.20;;
568;SDS011;269;48.884;9.192;2022-08-21T01:18:05;2.80;;;2.50;;
568;SDS011;269;48.884;9.192;2022-08-21T01:20:34;3.40;;;2.50;;
568;SDS011;269;48.884;9.192;2022-08-21T01:23:03;4.10;;;2.63;;
568;SDS011;269;48.884;9.192;2022-08-21T01:25:31;3.77;;;2.67;;
568;SDS011;269;48.884;9.192;2022-08-21T01:28:02;3.40;;;2.77;;
568;SDS011;269;48.884;9.192;2022-08-21T01:30:34;3.33;;;3.00;;
568;SDS011;269;48.884;9.192;2022-08-21T01:33:03;3.23;;;2.67;;
568;SDS011;269;48.884;9.192;2022-08-21T01:35:30;3.77;;;2.80;;
568;SDS011;269;48.884;9.192;2022-08-21T01:37:57;2.90;;;2.60;;
568;SDS011;269;48.884;9.192;2022-08-21T01:40:26;4.20;;;2.37;;
568;SDS011;269;48.884;9.192;2022-08-21T01:42:53;4.50;;;2.90;;
568;SDS011;269;48.884;9.192;2022-08-21T01:45:20;2.73;;;2.53;;
568;SDS011;269;48.884;9.192;2022-08-21T01:47:47;3.20;;;2.80;;
568;SDS011;269;48.884;9.192;2022-08-21T01:50:15;3.97;;;2.83;;
568;SDS011;269;48.884;9.192;2022-08-21T01:52:45;4.13;;;3.13;;
568;SDS011;269;48.884;9.192;2022-08-21T01:55:13;4.10;;;3.07;;
568;SDS011;269;48.884;9.192;2022-08-21T01:57:45;3.43;;;2.90;;
568;SDS011;269;48.884;9.192;2022-08-21T02:00:13;5.37;;;3.17;;
568;SDS011;269;48.884;9.192;2022-08-21T02:02:42;3.50;;;3.03;;
568;SDS011;269;48.884;9.192;2022-08-21T02:05:09;4.03;;;2.97;;
568;SDS011;269;48.884;9.192;2022-08-21T02:07:38;3.37;;;3.07;;
568;SDS011;269;48.884;9.192;2022-08-21T02:10:07;3.50;;;3.20;;
568;SDS011;269;48.884;9.192;2022-08-21T02:12:35;3.53;;;3.23;;
568;SDS011;269;48.884;9.192;2022-08-21T02:15:05;3.80;;;3.33;;
568;SDS011;269;48.884;9.192;2022-08-21T02:17:37;3.77;;;3.37;;
568;SDS011;269;48.884;9.192;2022-08-21T02:20:06;3.60;;;3.30;;
568;SDS011;269;48.884;9.192;2022-08-21T02:22:34;4.10;;;3.43;;
568;SDS011;269;48.884;9.192;2022-08-21T02:25:01;4.27;;;3.60;;
568;SDS011;269;48.884;9.192;2022-08-21T02:27:29;4.07;;;3.67;;
568;SDS011;269;48.884;9.192;2022-08-21T02:30:05;4.33;;;3.93;;
568;SDS011;269;48.884;9.192;2022-08-21T02:32:33;4.30;;;3.47;;
568;SDS011;269;48.884;9.192;2022-08-21T02:35:01;5.60;;;3.80;;
568;SDS011;269;48.884;9.192;2022-08-21T02:37:29;4.67;;;4.07;;
568;SDS011;269;48.884;9.192;2022-08-21T02:39:56;4.83;;;4.33;;
568;SDS011;269;48.884;9.192;2022-08-21T02:42:24;4.13;;;3.73;;
568;SDS011;269;48.884;9.192;2022-08-21T02:44:52;5.23;;;4.10;;
568;SDS011;269;48.884;9.192;2022-08-21T02:47:20;4.63;;;4.00;;
568;SDS011;269;48.884;9.192;2022-08-21T02:49:47;4.77;;;3.90;;
568;SDS011;269;48.884;9.192;2022-08-21T02:52:14;4.73;;;4.33;;
568;SDS011;269;48.884;9.192;2022-08-21T02:54:41;4.97;;;4.50;;
568;SDS011;269;48.884;9.192;2022-08-21T02:57:09;3.83;;;3.53;;
568;SDS011;269;48.884;9.192;2022-08-21T02:59:36;4.63;;;4.10;;
568;SDS011;269;48.884;9.192;2022-08-21T03:02:03;5.60;;;4.43;;
568;SDS011;269;48.884;9.192;2022-08-21T03:04:32;4.83;;;4.50;;
568;SDS011;269;48.884;9.192;2022-08-21T03:06:59;5.60;;;5.10;;
568;SDS011;269;48.884;9.192;2022-08-21T03:09:26;5.37;;;4.90;;
568;SDS011;269;48.884;9.192;2022-08-21T03:11:53;4.97;;;4.57;;
568;SDS011;269;48.884;9.192;2022-08-21T03:14:20;4.93;;;4.23;;
568;SDS011;269;48.884;9.192;2022-08-21T03:16:47;5.33;;;4.83;;
568;SDS011;269;48.884;9.192;2022-08-21T03:19:15;5.30;;;4.90;;
568;SDS011;269;48.884;9.192;2022-08-21T03:21:43;5.90;;;4.97;;
568;SDS011;269;48.884;9.192;2022-08-21T03:24:10;5.40;;;4.90;;
568;SDS011;269;48.884;9.192;2022-08-21T03:26:37;6.00;;;5.17;;
568;SDS011;269;48.884;9.192;2022-08-21T03:29:04;5.43;;;4.93;;
568;SDS011;269;48.884;9.192;2022-08-21T03:31:32;5.77;;;5.17;;
568;SDS011;269;48.884;9.192;2022-08-21T03:33:59;5.23;;;4.83;;
568;SDS011;269;48.884;9.192;2022-08-21T03:36:27;5.47;;;4.97;;
568;SDS011;269;48.884;9.192;2022-08-21T03:38:56;6.17;;;5.27;;
568;SDS011;269;48.884;9.192;2022-08-21T03:41:23;5.90;;;5.33;;
568;SDS011;269;48.884;9.192;2022-08-21T03:43:50;6.33;;;5.73;;
568;SDS011;269;48.884;9.192;2022-08-21T03:46:17;6.60;;;5.87;;
568;SDS011;269;48.884;9.192;2022-08-21T03:48:44;6.30;;;5.77;;
568;SDS011;269;48.884;9.192;2022-08-21T03:51:12;6.23;;;5.73;;
568;SDS011;269;48.884;9.192;2022-08-21T03:53:39;6.87;;;6.27;;
568;SDS011;269;48.884;9.192;2022-08-21T03:56:07;6.53;;;6.03;;
568;SDS011;269;48.884;9.192;2022-08-21T03:58:34;6.93;;;6.23;;
568;SDS011;269;48.884;9.192;2022-08-21T04:01:02;6.40;;;5.90;;
568;SDS011;269;48.884;9.192;2022-08-21T04:03:31;8.00;;;6.73;;
568;SDS011;269;48.884;9.192;2022-08-21T04:06:00;7.67;;;7.00;;
568;SDS011;269;48.884;9.192;2022-08-21T04:08:28;8.13;;;6.10;;
568;SDS011;269;48.884;9.192;2022-08-21T04:10:55;6.65;;;6.15;;
568;SDS011;269;48.884;9.192;2022-08-21T04:13:25;6.33;;;5.73;;
568;SDS011;269;48.884;9.192;2022-08-21T04:15:54;6.83;;;6.23;;
568;SDS011;269;48.884;9.192;2022-08-21T04:18:23;6.27;;;5.77;;
568;SDS011;269;48.884;9.192;2022-08-21T04:20:51;7.03;;;6.40;;
568;SDS011;269;48.884;9.192;2022-08-21T04:23:20;6.40;;;5.90;;
568;SDS011;269;48.884;9.192;2022-08-21T04:25:48;9.60;;;7.20;;
568;SDS011;269;48.884;9.192;2022-08-21T04:28:15;7.18;;;6.20;;
568;SDS011;269;48.884;9.192;2022-08-21T04:30:44;6.93;;;5.85;;
568;SDS011;269;48.884;9.192;2022-08-21T04:33:11;7.17;;;6.47;;
568;SDS011;269;48.884;9.192;2022-08-21T04:35:38;6.60;;;6.00;;
568;SDS011;269;48.884;9.192;2022-08-21T04:38:07;5.87;;;5.37;;
568;SDS011;269;48.884;9.192;2022-08-21T04:40:34;6.13;;;5.53;;
568;SDS011;269;48.884;9.192;2022-08-21T04:43:06;5.50;;;5.10;;
568;SDS011;269;48.884;9.192;2022-08-21T04:45:35;6.50;;;5.90;;
568;SDS011;269;48.884;9.192;2022-08-21T04:48:07;5.80;;;5.30;;
568;SDS011;269;48.884;9.192;2022-08-21T04:50:36;6.10;;;5.50;;
568;SDS011;269;48.884;9.192;2022-08-21T04:53:06;6.37;;;5.37;;
568;SDS011;269;48.884;9.192;2022-08-21T04:55:38;6.28;;;5.68;;
568;SDS011;269;48.884;9.192;2022-08-21T04:58:06;5.55;;;4.97;;
568;SDS011;269;48.884;9.192;2022-08-21T05:00:34;6.60;;;5.03;;
568;SDS011;269;48.884;9.192;2022-08-21T05:03:02;6.85;;;5.10;;
568;SDS011;269;48.884;9.192;2022-08-21T05:05:32;5.47;;;5.03;;
568;SDS011;269;48.884;9.192;2022-08-21T05:08:00;6.83;;;5.43;;
568;SDS011;269;48.884;9.192;2022-08-21T05:10:28;5.63;;;5.20;;
568;SDS011;269;48.884;9.192;2022-08-21T05:12:57;4.70;;;4.40;;
568;SDS011;269;48.884;9.192;2022-08-21T05:15:26;6.57;;;5.97;;
568;SDS011;269;48.884;9.192;2022-08-21T05:17:55;5.70;;;4.77;;
568;SDS011;269;48.884;9.192;2022-08-21T05:20:23;5.97;;;5.40;;
568;SDS011;269;48.884;9.192;2022-08-21T05:22:51;6.30;;;5.03;;
568;SDS011;269;48.884;9.192;2022-08-21T05:25:18;5.53;;;5.13;;
568;SDS011;269;48.884;9.192;2022-08-21T05:27:45;5.80;;;5.30;;
568;SDS011;269;48.884;9.192;2022-08-21T05:30:13;5.23;;;4.83;;
568;SDS011;269;48.884;9.192;2022-08-21T05:32:40;5.30;;;4.90;;
568;SDS011;269;48.884;9.192;2022-08-21T05:35:07;5.23;;;4.83;;
568;SDS011;269;48.884;9.192;2022-08-21T05:37:35;5.53;;;5.13;;
568;SDS011;269;48.884;9.192;2022-08-21T05:40:05;6.57;;;5.50;;
568;SDS011;269;48.884;9.192;2022-08-21T05:42:33;5.40;;;5.00;;
568;SDS011;269;48.884;9.192;2022-08-21T05:45:00;5.10;;;4.60;;
568;SDS011;269;48.884;9.192;2022-08-21T05:47:27;5.83;;;5.30;;
568;SDS011;269;48.884;9.192;2022-08-21T05:49:54;6.17;;;5.57;;
568;SDS011;269;48.884;9.192;2022-08-21T05:52:22;5.73;;;5.30;;
568;SDS011;269;48.884;9.192;2022-08-21T05:54:49;5.77;;;5.20;;
568;SDS011;269;48.884;9.192;2022-08-21T05:57:20;6.50;;;5.80;;
568;SDS011;269;48.884;9.192;2022-08-21T05:59:48;5.23;;;4.90;;
568;SDS011;269;48.884;9.192;2022-08-21T06:02:16;5.83;;;5.07;;
568;SDS011;269;48.884;9.192;2022-08-21T06:04:43;6.13;;;5.70;;
568;SDS011;269;48.884;9.192;2022-08-21T06:07:11;5.20;;;4.63;;
568;SDS011;269;48.884;9.192;2022-08-21T06:09:38;5.83;;;5.33;;
568;SDS011;269;48.884;9.192;2022-08-21T06:12:05;5.80;;;5.30;;
568;SDS011;269;48.884;9.192;2022-08-21T06:14:37;4.97;;;4.53;;
568;SDS011;269;48.884;9.192;2022-08-21T06:17:05;6.13;;;4.93;;
568;SDS011;269;48.884;9.192;2022-08-21T06:19:36;4.97;;;4.60;;
568;SDS011;269;48.884;9.192;2022-08-21T06:22:03;5.80;;;5.30;;
568;SDS011;269;48.884;9.192;2022-08-21T06:24:31;6.40;;;5.80;;
568;SDS011;269;48.884;9.192;2022-08-21T06:27:03;5.13;;;4.63;;
568;SDS011;269;48.884;9.192;2022-08-21T06:29:31;6.93;;;4.97;;
568;SDS011;269;48.884;9.192;2022-08-21T06:32:00;5.90;;;5.50;;
568;SDS011;269;48.884;9.192;2022-08-21T06:34:27;5.57;;;5.07;;
568;SDS011;269;48.884;9.192;2022-08-21T06:36:54;7.20;;;5.60;;
568;SDS011;269;48.884;9.192;2022-08-21T06:39:22;5.30;;;4.80;;
568;SDS011;269;48.884;9.192;2022-08-21T06:41:49;5.47;;;5.13;;
568;SDS011;269;48.884;9.192;2022-08-21T06:44:16;6.30;;;5.00;;
568;SDS011;269;48.884;9.192;2022-08-21T06:46:43;5.20;;;4.80;;
568;SDS011;269;48.884;9.192;2022-08-21T06:49:12;4.70;;;4.30;;
568;SDS011;269;48.884;9.192;2022-08-21T06:51:39;5.10;;;4.30;;
568;SDS011;269;48.884;9.192;2022-08-21T06:54:07;4.93;;;4.50;;
568;SDS011;269;48.884;9.192;2022-08-21T06:56:34;5.40;;;4.43;;
568;SDS011;269;48.884;9.192;2022-08-21T06:59:03;4.30;;;3.90;;
568;SDS011;269;48.884;9.192;2022-08-21T07:01:31;5.20;;;4.53;;
568;SDS011;269;48.884;9.192;2022-08-21T07:03:58;3.77;;;3.57;;
568;SDS011;269;48.884;9.192;2022-08-21T07:06:26;4.13;;;3.73;;
568;SDS011;269;48.884;9.192;2022-08-21T15:29:22;2.93;;;2.63;;
568;SDS011;269;48.884;9.192;2022-08-21T15:31:50;3.43;;;2.70;;
568;SDS011;269;48.884;9.192;2022-08-21T15:34:19;3.23;;;2.87;;
568;SDS011;269;48.884;9.192;2022-08-21T15:36:47;3.30;;;2.30;;
568;SDS011;269;48.884;9.192;2022-08-21T15:39:14;2.83;;;2.63;;
568;SDS011;269;48.884;9.192;2022-08-21T15:41:41;2.90;;;2.40;;
568;SDS011;269;48.884;9.192;2022-08-21T15:44:09;3.40;;;2.77;;
568;SDS011;269;48.884;9.192;2022-08-21T15:46:39;2.57;;;2.37;;
568;SDS011;269;48.884;9.192;2022-08-21T15:49:07;3.03;;;2.73;;
568;SDS011;269;48.884;9.192;2022-08-21T15:51:34;3.70;;;3.20;;
568;SDS011;269;48.884;9.192;2022-08-21T15:54:01;2.93;;;2.70;;
568;SDS011;269;48.884;9.192;2022-08-21T15:56:32;2.63;;;2.43;;
568;SDS011;269;48.884;9.192;2022-08-21T15:59:04;2.80;;;2.50;;
568;SDS011;269;48.884;9.192;2022-08-21T16:01:34;3.00;;;2.40;;
568;SDS011;269;48.884;9.192;2022-08-21T16:04:04;3.10;;;2.63;;
568;SDS011;269;48.884;9.192;2022-08-21T16:06:31;3.20;;;2.90;;
568;SDS011;269;48.884;9.192;2022-08-21T16:08:59;2.97;;;2.50;;
568;SDS011;269;48.884;9.192;2022-08-21T16:11:26;3.07;;;2.77;;
568;SDS011;269;48.884;9.192;2022-08-21T16:13:54;3.80;;;2.80;;
568;SDS011;269;48.884;9.192;2022-08-21T16:16:22;4.47;;;2.70;;
568;SDS011;269;48.884;9.192;2022-08-21T16:18:50;3.10;;;2.63;;
568;SDS011;269;48.884;9.192;2022-08-21T16:21:19;2.77;;;2.57;;
568;SDS011;269;48.884;9.192;2022-08-21T16:23:46;3.53;;;2.90;;
568;SDS011;269;48.884;9.192;2022-08-21T16:26:14;3.43;;;3.13;;
568;SDS011;269;48.884;9.192;2022-08-21T16:28:42;3.17;;;2.90;;
568;SDS011;269;48.884;9.192;2022-08-21T16:31:11;3.20;;;2.87;;
568;SDS011;269;48.884;9.192;2022-08-21T16:33:39;3.70;;;3.00;;
568;SDS011;269;48.884;9.192;2022-08-21T16:36:09;3.17;;;2.63;;
568;SDS011;269;48.884;9.192;2022-08-21T16:38:38;4.20;;;2.70;;
568;SDS011;269;48.884;9.192;2022-08-21T16:41:07;3.33;;;3.03;;
568;SDS011;269;48.884;9.192;2022-08-21T16:43:37;2.83;;;2.50;;
568;SDS011;269;48.884;9.192;2022-08-21T16:46:06;4.73;;;3.10;;
568;SDS011;269;48.884;9.192;2022-08-21T16:48:34;3.30;;;2.80;;
568;SDS011;269;48.884;9.192;2022-08-21T16:51:01;3.73;;;3.10;;
568;SDS011;269;48.884;9.192;2022-08-21T16:53:28;5.10;;;2.80;;
568;SDS011;269;48.884;9.192;2022-08-21T16:55:56;3.10;;;2.80;;
568;SDS011;269;48.884;9.192;2022-08-21T16:58:25;3.20;;;2.90;;
568;SDS011;269;48.884;9.192;2022-08-21T17:00:54;2.63;;;2.43;;
568;SDS011;269;48.884;9.192;2022-08-21T17:03:25;4.33;;;3.07;;
568;SDS011;269;48.884;9.192;2022-08-21T17:05:55;3.23;;;2.97;;
568;SDS011;269;48.884;9.192;2022-08-21T17:08:22;4.00;;;3.20;;
568;SDS011;269;48.884;9.192;2022-08-21T17:10:49;2.80;;;2.50;;
568;SDS011;269;48.884;9.192;2022-08-21T17:13:18;3.10;;;2.80;;
568;SDS011;269;48.884;9.192;2022-08-21T17:15:46;3.60;;;3.30;;
568;SDS011;269;48.884;9.192;2022-08-21T17:18:14;3.70;;;3.13;;
568;SDS011;269;48.884;9.192;2022-08-21T17:20:43;2.90;;;2.70;;
568;SDS011;269;48.884;9.192;2022-08-21T17:23:12;3.13;;;2.83;;
568;SDS011;269;48.884;9.192;2022-08-21T17:25:40;3.20;;;2.90;;
568;SDS011;269;48.884;9.192;2022-08-21T17:28:10;3.67;;;3.20;;
568;SDS011;269;48.884;9.192;2022-08-21T17:30:42;3.93;;;3.40;;
568;SDS011;269;48.884;9.192;2022-08-21T17:33:10;4.00;;;2.90;;
568;SDS011;269;48.884;9.192;2022-08-21T17:35:39;3.20;;;2.90;;
568;SDS011;269;48.884;9.192;2022-08-21T17:38:06;3.47;;;2.43;;
568;SDS011;269;48.884;9.192;2022-08-21T17:40:34;5.83;;;3.33;;
568;SDS011;269;48.884;9.192;2022-08-21T17:43:01;3.57;;;3.07;;
568;SDS011;269;48.884;9.192;2022-08-21T17:45:29;3.80;;;3.47;;
568;SDS011;269;48.884;9.192;2022-08-21T17:47:57;3.87;;;2.93;;
568;SDS011;269;48.884;9.192;2022-08-21T17:50:24;3.00;;;2.70;;
568;SDS011;269;48.884;9.192;2022-08-21T17:52:52;3.90;;;3.50;;
568;SDS011;269;48.884;9.192;2022-08-21T17:55:19;3.40;;;3.10;;
568;SDS011;269;48.884;9.192;2022-08-21T17:57:47;3.50;;;3.20;;
568;SDS011;269;48.884;9.192;2022-08-21T18:00:17;4.33;;;3.10;;
568;SDS011;269;48.884;9.192;2022-08-21T18:02:45;4.63;;;3.57;;
568;SDS011;269;48.884;9.192;2022-08-21T18:05:16;3.57;;;3.27;;
568;SDS011;269;48.884;9.192;2022-08-21T18:07:44;3.27;;;2.97;;
568;SDS011;269;48.884;9.192;2022-08-21T18:10:11;3.27;;;2.97;;
568;SDS011;269;48.884;9.192;2022-08-21T18:12:40;3.17;;;2.90;;
568;SDS011;269;48.884;9.192;2022-08-21T18:15:09;4.10;;;3.33;;
568;SDS011;269;48.884;9.192;2022-08-21T18:17:38;3.17;;;2.87;;
568;SDS011;269;48.884;9.192;2022-08-21T18:20:08;4.43;;;3.47;;
568;SDS011;269;48.884;9.192;2022-08-21T18:22:37;5.17;;;3.83;;
568;SDS011;269;48.884;9.192;2022-08-21T18:25:04;3.93;;;3.53;;
568;SDS011;269;48.884;9.192;2022-08-21T18:27:32;4.30;;;4.00;;
568;SDS011;269;48.884;9.192;2022-08-21T18:30:00;5.00;;;4.60;;
568;SDS011;269;48.884;9.192;2022-08-21T18:32:27;7.00;;;5.10;;
568;SDS011;269;48.884;9.192;2022-08-21T18:34:55;5.40;;;4.90;;
568;SDS011;269;48.884;9.192;2022-08-21T18:37:23;5.90;;;4.97;;
568;SDS011;269;48.884;9.192;2022-08-21T18:39:52;5.63;;;5.03;;
568;SDS011;269;48.884;9.192;2022-08-21T18:42:19;4.63;;;3.80;;
568;SDS011;269;48.884;9.192;2022-08-21T18:44:48;4.30;;;3.90;;
568;SDS011;269;48.884;9.192;2022-08-21T18:47:19;4.63;;;4.23;;
568;SDS011;269;48.884;9.192;2022-08-21T18:49:48;6.97;;;4.27;;
568;SDS011;269;48.884;9.192;2022-08-21T18:52:15;5.20;;;4.27;;
568;SDS011;269;48.884;9.192;2022-08-21T18:54:42;4.20;;;3.80;;
568;SDS011;269;48.884;9.192;2022-08-21T18:57:11;4.20;;;3.73;;
568;SDS011;269;48.884;9.192;2022-08-21T18:59:38;4.03;;;3.17;;
568;SDS011;269;48.884;9.192;2022-08-21T19:02:06;4.47;;;4.03;;
568;SDS011;269;48.884;9.192;2022-08-21T19:04:33;4.60;;;3.57;;
568;SDS011;269;48.884;9.192;2022-08-21T19:07:00;3.50;;;3.17;;
568;SDS011;269;48.884;9.192;2022-08-21T19:09:28;3.87;;;3.10;;
568;SDS011;269;48.884;9.192;2022-08-21T19:11:55;3.80;;;3.50;;
568;SDS011;269;48.884;9.192;2022-08-21T19:14:25;5.70;;;3.80;;
568;SDS011;269;48.884;9.192;2022-08-21T19:16:53;4.47;;;3.47;;
568;SDS011;269;48.884;9.192;2022-08-21T19:19:20;4.93;;;3.57;;
568;SDS011;269;48.884;9.192;2022-08-21T19:21:47;4.50;;;4.10;;
568;SDS011;269;48.884;9.192;2022-08-21T19:24:15;5.10;;;3.47;;
568;SDS011;269;48.884;9.192;2022-08-21T19:26:42;3.70;;;3.40;;
568;SDS011;269;48.884;9.192;2022-08-21T19:29:10;4.27;;;3.87;;
568;SDS011;269;48.884;9.192;2022-08-21T19:31:43;5.10;;;4.00;;
568;SDS011;269;48.884;9.192;2022-08-21T19:34:20;4.17;;;3.77;;
568;SDS011;269;48.884;9.192;2022-08-21T19:36:51;4.53;;;3.77;;
568;SDS011;269;48.884;9.192;2022-08-21T19:39:21;4.73;;;3.80;;
568;SDS011;269;48.884;9.192;2022-08-21T19:41:50;4.07;;;3.73;;
568;SDS011;269;48.884;9.192;2022-08-21T19:44:21;3.90;;;3.30;;
568;SDS011;269;48.884;9.192;2022-08-21T19:46:51;4.03;;;3.63;;
568;SDS011;269;48.884;9.192;2022-08-21T19:49:22;4.07;;;3.67;;
568;SDS011;269;48.884;9.192;2022-08-21T19:51:52;3.77;;;3.37;;
568;SDS011;269;48.884;9.192;2022-08-21T19:54:21;3.60;;;3.30;;
568;SDS011;269;48.884;9.192;2022-08-21T19:56:50;4.77;;;3.70;;
568;SDS011;269;48.884;9.192;2022-08-21T19:59:19;4.40;;;4.00;;
568;SDS011;269;48.884;9.192;2022-08-21T20:01:47;4.40;;;4.00;;
568;SDS011;269;48.884;9.192;2022-08-21T20:04:16;4.17;;;3.77;;
568;SDS011;269;48.884;9.192;2022-08-21T20:06:43;4.43;;;4.03;;
568;SDS011;269;48.884;9.192;2022-08-21T20:09:10;4.33;;;3.93;;
568;SDS011;269;48.884;9.192;2022-08-21T20:11:39;4.30;;;3.90;;
568;SDS011;269;48.884;9.192;2022-08-21T20:14:09;4.03;;;3.63;;
568;SDS011;269;48.884;9.192;2022-08-21T20:16:39;5.83;;;4.23;;
568;SDS011;269;48.884;9.192;2022-08-21T20:19:07;4.80;;;3.67;;
568;SDS011;269;48.884;9.192;2022-08-21T20:21:37;7.00;;;4.30;;
568;SDS011;269;48.884;9.192;2022-08-21T20:24:05;4.17;;;3.73;;
568;SDS011;269;48.884;9.192;2022-08-21T20:26:33;4.00;;;3.60;;
568;SDS011;269;48.884;9.192;2022-08-21T20:29:00;3.67;;;3.30;;
568;SDS011;269;48.884;9.192;2022-08-21T20:31:29;3.97;;;3.60;;
568;SDS011;269;48.884;9.192;2022-08-21T20:33:57;6.53;;;5.73;;
568;SDS011;269;48.884;9.192;2022-08-21T20:36:24;5.20;;;4.70;;
568;SDS011;269;48.884;9.192;2022-08-21T20:38:53;4.90;;;4.20;;
568;SDS011;269;48.884;9.192;2022-08-21T20:41:20;3.50;;;3.20;;
568;SDS011;269;48.884;9.192;2022-08-21T20:43:49;4.23;;;3.80;;
568;SDS011;269;48.884;9.192;2022-08-21T20:46:18;4.20;;;3.37;;
568;SDS011;269;48.884;9.192;2022-08-21T20:48:48;3.90;;;3.27;;
568;SDS011;269;48.884;9.192;2022-08-21T20:51:18;3.83;;;3.50;;
568;SDS011;269;48.884;9.192;2022-08-21T20:53:51;4.50;;;3.87;;
568;SDS011;269;48.884;9.192;2022-08-21T20:56:30;4.00;;;3.20;;
568;SDS011;269;48.884;9.192;2022-08-21T20:59:06;4.07;;;3.67;;
568;SDS011;269;48.884;9.192;2022-08-21T21:01:40;4.77;;;3.30;;
568;SDS011;269;48.884;9.192;2022-08-21T21:04:12;5.20;;;3.40;;
568;SDS011;269;48.884;9.192;2022-08-21T21:06:50;3.90;;;3.50;;
568;SDS011;269;48.884;9.192;2022-08-21T21:09:28;4.30;;;3.37;;
568;SDS011;269;48.884;9.192;2022-08-21T21:12:02;3.27;;;2.97;;
568;SDS011;269;48.884;9.192;2022-08-21T21:14:35;3.57;;;3.27;;
568;SDS011;269;48.884;9.192;2022-08-21T21:17:05;3.10;;;2.80;;
568;SDS011;269;48.884;9.192;2022-08-21T21:19:40;3.43;;;3.10;;
568;SDS011;269;48.884;9.192;2022-08-21T21:22:12;3.87;;;3.57;;
568;SDS011;269;48.884;9.192;2022-08-21T21:24:47;3.40;;;3.10;;
568;SDS011;269;48.884;9.192;2022-08-21T21:27:19;3.87;;;3.43;;
568;SDS011;269;48.884;9.192;2022-08-21T21:29:52;3.97;;;3.63;;
568;SDS011;269;48.884;9.192;2022-08-21T21:32:24;3.77;;;3.30;;
568;SDS011;269;48.884;9.192;2022-08-21T21:34:53;3.80;;;3.40;;
568;SDS011;269;48.884;9.192;2022-08-21T21:37:21;3.73;;;3.43;;
568;SDS011;269;48.884;9.192;2022-08-21T21:39:56;4.47;;;4.07;;
568;SDS011;269;48.884;9.192;2022-08-21T21:42:37;3.87;;;3.47;;
568;SDS011;269;48.884;9.192;2022-08-21T21:45:13;3.77;;;3.47;;
568;SDS011;269;48.884;9.192;2022-08-21T21:47:48;5.07;;;3.57;;
568;SDS011;269;48.884;9.192;2022-08-21T21:50:32;5.60;;;4.10;;
568;SDS011;269;48.884;9.192;2022-08-21T21:53:10;4.27;;;3.87;;
568;SDS011;269;48.884;9.192;2022-08-21T21:55:53;4.50;;;4.10;;
568;SDS011;269;48.884;9.192;2022-08-21T21:58:43;4.70;;;4.30;;
568;SDS011;269;48.884;9.192;2022-08-21T22:01:24;4.60;;;3.70;;
568;SDS011;269;48.884;9.192;2022-08-21T22:03:58;4.50;;;4.10;;
568;SDS011;269;48.884;9.192;2022-08-21T22:06:29;3.97;;;3.30;;
568;SDS011;269;48.884;9.192;2022-08-21T22:09:03;5.00;;;3.80;;
568;SDS011;269;48.884;9.192;2022-08-21T22:11:41;5.97;;;3.80;;
568;SDS011;269;48.884;9.192;2022-08-21T22:14:17;3.90;;;3.60;;
568;SDS011;269;48.884;9.192;2022-08-21T22:16:45;5.00;;;3.90;;
568;SDS011;269;48.884;9.192;2022-08-21T22:19:15;4.77;;;4.10;;
568;SDS011;269;48.884;9.192;2022-08-21T22:21:46;4.40;;;4.00;;
568;SDS011;269;48.884;9.192;2022-08-21T22:24:19;5.00;;;4.50;;
568;SDS011;269;48.884;9.192;2022-08-21T22:26:52;4.60;;;3.80;;
568;SDS011;269;48.884;9.192;2022-08-21T22:29:24;5.23;;;4.63;;
568;SDS011;269;48.884;9.192;2022-08-21T22:32:06;6.63;;;4.53;;
568;SDS011;269;48.884;9.192;2022-08-21T22:34:35;4.90;;;4.40;;
568;SDS011;269;48.884;9.192;2022-08-21T22:37:03;4.57;;;3.80;;
568;SDS011;269;48.884;9.192;2022-08-21T22:39:35;4.80;;;3.93;;
568;SDS011;269;48.884;9.192;2022-08-21T22:42:07;4.23;;;3.80;;
568;SDS011;269;48.884;9.192;2022-08-21T22:44:47;4.63;;;4.23;;
568;SDS011;269;48.884;9.192;2022-08-21T22:47:18;4.80;;;4.40;;
568;SDS011;269;48.884;9.192;2022-08-21T22:49:48;5.43;;;4.90;;
568;SDS011;269;48.884;9.192;2022-08-21T22:52:20;5.30;;;4.80;;
568;SDS011;269;48.884;9.192;2022-08-21T22:54:50;5.73;;;4.33;;
568;SDS011;269;48.884;9.192;2022-08-21T22:57:25;5.20;;;4.57;;
568;SDS011;269;48.884;9.192;2022-08-21T22:59:55;4.47;;;4.03;;
568;SDS011;269;48.884;9.192;2022-08-21T23:02:33;5.03;;;4.60;;
568;SDS011;269;48.884;9.192;2022-08-21T23:05:05;5.40;;;4.27;;
568;SDS011;269;48.884;9.192;2022-08-21T23:07:42;5.13;;;4.63;;
568;SDS011;269;48.884;9.192;2022-08-21T23:10:18;5.47;;;4.40;;
568;SDS011;269;48.884;9.192;2022-08-21T23:12:53;5.53;;;4.60;;
568;SDS011;269;48.884;9.192;2022-08-21T23:15:26;5.23;;;4.30;;
568;SDS011;269;48.884;9.192;2022-08-21T23:17:58;5.20;;;4.30;;
568;SDS011;269;48.884;9.192;2022-08-21T23:20:32;4.87;;;4.20;;
568;SDS011;269;48.884;9.192;2022-08-21T23:23:09;6.20;;;5.07;;
568;SDS011;269;48.884;9.192;2022-08-21T23:28:41;6.10;;;4.60;;
568;SDS011;269;48.884;9.192;2022-08-21T23:31:28;4.70;;;4.30;;
568;SDS011;269;48.884;9.192;2022-08-21T23:34:05;5.27;;;4.33;;
568;SDS011;269;48.884;9.192;2022-08-21T23:36:47;5.27;;;4.80;;
568;SDS011;269;48.884;9.192;2022-08-21T23:39:47;5.97;;;4.67;;
568;SDS011;269;48.884;9.192;2022-08-21T23:42:31;4.97;;;4.50;;
568;SDS011;269;48.884;9.192;2022-08-21T23:45:15;7.17;;;4.63;;
568;SDS011;269;48.884;9.192;2022-08-21T23:47:50;4.90;;;4.40;;
568;SDS011;269;48.884;9.192;2022-08-21T23:50:29;4.97;;;4.53;;
568;SDS011;269;48.884;9.192;2022-08-21T23:53:06;6.90;;;5.30;;
568;SDS011;269;48.884;9.192;2022-08-21T23:55:41;6.70;;;4.60;;
568;SDS011;269;48.884;9.192;2022-08-21T23:58:18;5.47;;;4.80;;
